sensor_id;sensor_type;location;lat;lon;timestamp;pressure;altitude;pressure_sealevel;temperature;humidity
73952;BME280;62304;47.662;18.324;2024-03-08T00:00:24;100669.34;;;5.37;100.00
73952;BME280;62304;47.662;18.324;2024-03-08T00:03:27;100677.91;;;5.44;100.00
73952;BME280;62304;47.662;18.324;2024-03-08T00:06:31;100665.50;;;5.21;100.00
73952;BME280;62304;47.662;18.324;2024-03-08T00:09:35;100662.75;;;5.21;100.00
73952;BME280;62304;47.662;18.324;2024-03-08T00:12:39;100654.81;;;5.28;100.00
73952;BME280;62304;47.662;18.324;2024-03-08T00:15:45;100657.06;;;5.34;100.00
73952;BME280;62304;47.662;18.324;2024-03-08T00:18:47;100657.69;;;5.48;100.00
73952;BME280;62304;47.662;18.324;2024-03-08T00:21:53;100659.75;;;5.51;100.00
73952;BME280;62304;47.662;18.324;2024-03-08T00:24:56;100659.44;;;5.53;100.00
73952;BME280;62304;47.662;18.324;2024-03-08T00:27:59;100667.56;;;5.49;100.00
73952;BME280;62304;47.662;18.324;2024-03-08T00:31:02;100654.72;;;5.62;100.00
73952;BME280;62304;47.662;18.324;2024-03-08T00:34:06;100656.50;;;5.58;100.00
73952;BME280;62304;47.662;18.324;2024-03-08T00:37:09;100668.53;;;5.53;100.00
73952;BME280;62304;47.662;18.324;2024-03-08T00:40:13;100668.03;;;5.51;100.00
73952;BME280;62304;47.662;18.324;2024-03-08T00:43:17;100658.00;;;5.47;100.00
73952;BME280;62304;47.662;18.324;2024-03-08T00:46:20;100662.69;;;5.46;100.00
73952;BME280;62304;47.662;18.324;2024-03-08T00:49:23;100652.19;;;5.48;100.00
73952;BME280;62304;47.662;18.324;2024-03-08T00:52:26;100649.63;;;5.43;100.00
73952;BME280;62304;47.662;18.324;2024-03-08T00:55:29;100647.28;;;5.54;100.00
73952;BME280;62304;47.662;18.324;2024-03-08T00:58:32;100642.25;;;5.56;100.00
73952;BME280;62304;47.662;18.324;2024-03-08T01:01:36;100641.75;;;5.62;100.00
73952;BME280;62304;47.662;18.324;2024-03-08T01:04:39;100644.69;;;5.57;100.00
73952;BME280;62304;47.662;18.324;2024-03-08T01:07:42;100637.75;;;5.51;100.00
73952;BME280;62304;47.662;18.324;2024-03-08T01:10:46;100639.19;;;5.57;100.00
73952;BME280;62304;47.662;18.324;2024-03-08T01:13:50;100636.75;;;5.64;100.00
73952;BME280;62304;47.662;18.324;2024-03-08T01:16:53;100633.47;;;5.71;100.00
73952;BME280;62304;47.662;18.324;2024-03-08T01:19:57;100632.81;;;5.74;100.00
73952;BME280;62304;47.662;18.324;2024-03-08T01:23:02;100638.91;;;5.88;100.00
73952;BME280;62304;47.662;18.324;2024-03-08T01:26:06;100635.22;;;5.84;100.00
73952;BME280;62304;47.662;18.324;2024-03-08T01:29:10;100634.22;;;5.88;100.00
73952;BME280;62304;47.662;18.324;2024-03-08T01:32:13;100636.34;;;5.74;100.00
73952;BME280;62304;47.662;18.324;2024-03-08T01:35:19;100625.84;;;5.76;100.00
73952;BME280;62304;47.662;18.324;2024-03-08T01:38:24;100625.03;;;5.76;100.00
73952;BME280;62304;47.662;18.324;2024-03-08T01:41:28;100628.59;;;5.76;100.00
73952;BME280;62304;47.662;18.324;2024-03-08T01:44:32;100625.06;;;5.67;100.00
73952;BME280;62304;47.662;18.324;2024-03-08T01:47:36;100617.97;;;5.66;100.00
73952;BME280;62304;47.662;18.324;2024-03-08T01:50:40;100620.78;;;5.49;100.00
73952;BME280;62304;47.662;18.324;2024-03-08T01:53:45;100618.00;;;5.58;100.00
73952;BME280;62304;47.662;18.324;2024-03-08T01:56:49;100622.25;;;5.47;100.00
73952;BME280;62304;47.662;18.324;2024-03-08T01:59:53;100615.50;;;5.36;100.00
73952;BME280;62304;47.662;18.324;2024-03-08T02:02:58;100618.78;;;5.58;100.00
73952;BME280;62304;47.662;18.324;2024-03-08T02:06:02;100614.84;;;5.76;100.00
73952;BME280;62304;47.662;18.324;2024-03-08T02:09:05;100618.97;;;5.62;100.00
73952;BME280;62304;47.662;18.324;2024-03-08T02:12:09;100622.94;;;5.81;100.00
73952;BME280;62304;47.662;18.324;2024-03-08T02:15:13;100616.22;;;5.62;100.00
73952;BME280;62304;47.662;18.324;2024-03-08T02:18:18;100624.72;;;5.40;100.00
73952;BME280;62304;47.662;18.324;2024-03-08T02:21:22;100621.06;;;5.56;100.00
73952;BME280;62304;47.662;18.324;2024-03-08T02:24:27;100628.03;;;5.54;100.00
73952;BME280;62304;47.662;18.324;2024-03-08T02:27:31;100615.38;;;5.61;100.00
73952;BME280;62304;47.662;18.324;2024-03-08T02:30:34;100625.75;;;5.64;100.00
73952;BME280;62304;47.662;18.324;2024-03-08T02:33:38;100617.63;;;5.68;100.00
73952;BME280;62304;47.662;18.324;2024-03-08T02:36:42;100618.97;;;5.62;100.00
73952;BME280;62304;47.662;18.324;2024-03-08T02:39:46;100628.19;;;5.57;100.00
73952;BME280;62304;47.662;18.324;2024-03-08T02:42:49;100622.50;;;5.62;100.00
73952;BME280;62304;47.662;18.324;2024-03-08T02:45:52;100623.28;;;5.71;100.00
73952;BME280;62304;47.662;18.324;2024-03-08T02:48:59;100619.53;;;5.76;100.00
73952;BME280;62304;47.662;18.324;2024-03-08T02:52:04;100622.75;;;5.86;100.00
73952;BME280;62304;47.662;18.324;2024-03-08T02:55:09;100619.31;;;5.89;100.00
73952;BME280;62304;47.662;18.324;2024-03-08T02:58:15;100619.19;;;5.86;100.00
73952;BME280;62304;47.662;18.324;2024-03-08T03:01:18;100625.34;;;5.74;100.00
73952;BME280;62304;47.662;18.324;2024-03-08T03:04:23;100626.44;;;5.90;100.00
73952;BME280;62304;47.662;18.324;2024-03-08T03:07:26;100623.81;;;5.94;100.00
73952;BME280;62304;47.662;18.324;2024-03-08T03:10:30;100624.81;;;5.89;100.00
73952;BME280;62304;47.662;18.324;2024-03-08T03:13:34;100618.72;;;5.84;100.00
73952;BME280;62304;47.662;18.324;2024-03-08T03:16:37;100625.69;;;5.81;100.00
73952;BME280;62304;47.662;18.324;2024-03-08T03:19:43;100627.78;;;5.76;100.00
73952;BME280;62304;47.662;18.324;2024-03-08T03:22:46;100621.31;;;5.72;100.00
73952;BME280;62304;47.662;18.324;2024-03-08T03:25:51;100627.19;;;5.70;100.00
73952;BME280;62304;47.662;18.324;2024-03-08T03:28:55;100616.34;;;5.65;100.00
73952;BME280;62304;47.662;18.324;2024-03-08T03:31:58;100618.28;;;5.65;100.00
73952;BME280;62304;47.662;18.324;2024-03-08T03:35:01;100630.59;;;5.59;100.00
73952;BME280;62304;47.662;18.324;2024-03-08T03:38:08;100628.06;;;5.45;100.00
73952;BME280;62304;47.662;18.324;2024-03-08T03:41:14;100626.75;;;5.51;100.00
73952;BME280;62304;47.662;18.324;2024-03-08T03:44:19;100618.50;;;5.51;100.00
73952;BME280;62304;47.662;18.324;2024-03-08T03:47:22;100628.84;;;5.54;100.00
73952;BME280;62304;47.662;18.324;2024-03-08T03:50:27;100619.78;;;5.54;100.00
73952;BME280;62304;47.662;18.324;2024-03-08T03:53:31;100624.69;;;5.48;100.00
73952;BME280;62304;47.662;18.324;2024-03-08T03:56:37;100620.50;;;5.42;100.00
73952;BME280;62304;47.662;18.324;2024-03-08T03:59:40;100617.84;;;5.54;100.00
73952;BME280;62304;47.662;18.324;2024-03-08T04:02:46;100623.66;;;5.61;100.00
73952;BME280;62304;47.662;18.324;2024-03-08T04:05:49;100618.06;;;5.78;100.00
73952;BME280;62304;47.662;18.324;2024-03-08T04:08:53;100631.19;;;5.81;100.00
73952;BME280;62304;47.662;18.324;2024-03-08T04:11:57;100622.41;;;5.88;100.00
73952;BME280;62304;47.662;18.324;2024-03-08T04:15:00;100617.03;;;5.91;100.00
73952;BME280;62304;47.662;18.324;2024-03-08T04:18:05;100617.25;;;5.86;100.00
73952;BME280;62304;47.662;18.324;2024-03-08T04:21:08;100622.12;;;5.72;100.00
73952;BME280;62304;47.662;18.324;2024-03-08T04:24:12;100623.25;;;5.80;100.00
73952;BME280;62304;47.662;18.324;2024-03-08T04:27:16;100616.28;;;5.82;100.00
73952;BME280;62304;47.662;18.324;2024-03-08T04:30:19;100623.28;;;5.71;100.00
73952;BME280;62304;47.662;18.324;2024-03-08T04:33:24;100623.41;;;5.83;100.00
73952;BME280;62304;47.662;18.324;2024-03-08T04:36:27;100625.16;;;5.79;100.00
73952;BME280;62304;47.662;18.324;2024-03-08T04:39:31;100624.69;;;5.77;100.00
73952;BME280;62304;47.662;18.324;2024-03-08T04:42:37;100623.28;;;5.71;100.00
73952;BME280;62304;47.662;18.324;2024-03-08T04:45:40;100630.25;;;5.69;100.00
73952;BME280;62304;47.662;18.324;2024-03-08T04:48:46;100632.38;;;5.63;100.00
73952;BME280;62304;47.662;18.324;2024-03-08T04:51:49;100633.69;;;5.57;100.00
73952;BME280;62304;47.662;18.324;2024-03-08T04:54:54;100636.44;;;5.57;100.00
73952;BME280;62304;47.662;18.324;2024-03-08T04:57:57;100637.28;;;5.49;100.00
73952;BME280;62304;47.662;18.324;2024-03-08T05:01:01;100635.69;;;5.48;100.00
73952;BME280;62304;47.662;18.324;2024-03-08T05:04:04;100645.53;;;5.49;100.00
73952;BME280;62304;47.662;18.324;2024-03-08T05:07:12;100639.38;;;5.52;100.00
73952;BME280;62304;47.662;18.324;2024-03-08T05:10:16;100637.13;;;5.54;100.00
73952;BME280;62304;47.662;18.324;2024-03-08T05:13:20;100640.03;;;5.49;100.00
73952;BME280;62304;47.662;18.324;2024-03-08T05:16:25;100642.66;;;5.46;100.00
73952;BME280;62304;47.662;18.324;2024-03-08T05:19:29;100645.06;;;5.39;100.00
73952;BME280;62304;47.662;18.324;2024-03-08T05:22:37;100638.62;;;5.35;100.00
73952;BME280;62304;47.662;18.324;2024-03-08T05:25:41;100636.03;;;5.38;100.00
73952;BME280;62304;47.662;18.324;2024-03-08T05:28:44;100637.34;;;5.32;100.00
73952;BME280;62304;47.662;18.324;2024-03-08T05:31:51;100638.31;;;5.28;100.00
73952;BME280;62304;47.662;18.324;2024-03-08T05:34:56;100639.31;;;5.23;100.00
73952;BME280;62304;47.662;18.324;2024-03-08T05:38:00;100652.59;;;5.21;100.00
73952;BME280;62304;47.662;18.324;2024-03-08T05:41:04;100641.44;;;5.18;100.00
73952;BME280;62304;47.662;18.324;2024-03-08T05:44:10;100651.63;;;5.17;100.00
73952;BME280;62304;47.662;18.324;2024-03-08T05:47:13;100642.22;;;5.18;100.00
73952;BME280;62304;47.662;18.324;2024-03-08T05:50:17;100652.44;;;5.18;100.00
73952;BME280;62304;47.662;18.324;2024-03-08T05:53:21;100658.56;;;5.23;100.00
73952;BME280;62304;47.662;18.324;2024-03-08T05:56:25;100656.28;;;5.25;100.00
73952;BME280;62304;47.662;18.324;2024-03-08T05:59:28;100660.16;;;5.24;100.00
73952;BME280;62304;47.662;18.324;2024-03-08T06:02:34;100660.16;;;5.24;100.00
73952;BME280;62304;47.662;18.324;2024-03-08T06:05:39;100655.34;;;5.21;100.00
73952;BME280;62304;47.662;18.324;2024-03-08T06:08:44;100666.97;;;5.18;100.00
73952;BME280;62304;47.662;18.324;2024-03-08T06:11:47;100668.75;;;5.14;100.00
73952;BME280;62304;47.662;18.324;2024-03-08T06:14:50;100667.97;;;5.14;100.00
73952;BME280;62304;47.662;18.324;2024-03-08T06:17:54;100665.22;;;5.14;100.00
73952;BME280;62304;47.662;18.324;2024-03-08T06:20:59;100669.41;;;5.20;100.00
73952;BME280;62304;47.662;18.324;2024-03-08T06:24:03;100670.22;;;5.20;100.00
73952;BME280;62304;47.662;18.324;2024-03-08T06:27:06;100669.72;;;5.18;100.00
73952;BME280;62304;47.662;18.324;2024-03-08T06:30:13;100671.00;;;5.21;100.00
73952;BME280;62304;47.662;18.324;2024-03-08T06:33:18;100674.25;;;5.31;100.00
73952;BME280;62304;47.662;18.324;2024-03-08T06:36:23;100667.25;;;5.34;100.00
73952;BME280;62304;47.662;18.324;2024-03-08T06:39:27;100680.19;;;5.42;100.00
73952;BME280;62304;47.662;18.324;2024-03-08T06:42:34;100682.75;;;5.55;100.00
73952;BME280;62304;47.662;18.324;2024-03-08T06:45:38;100688.34;;;5.67;100.00
73952;BME280;62304;47.662;18.324;2024-03-08T06:48:43;100697.91;;;5.70;100.00
73952;BME280;62304;47.662;18.324;2024-03-08T06:51:46;100697.94;;;5.61;100.00
73952;BME280;62304;47.662;18.324;2024-03-08T06:54:49;100694.69;;;5.68;100.00
73952;BME280;62304;47.662;18.324;2024-03-08T06:57:53;100697.25;;;5.81;100.00
73952;BME280;62304;47.662;18.324;2024-03-08T07:00:56;100698.88;;;5.74;100.00
73952;BME280;62304;47.662;18.324;2024-03-08T07:04:05;100697.03;;;5.78;100.00
73952;BME280;62304;47.662;18.324;2024-03-08T07:07:09;100703.91;;;5.63;100.00
73952;BME280;62304;47.662;18.324;2024-03-08T07:10:13;100693.22;;;5.70;100.00
73952;BME280;62304;47.662;18.324;2024-03-08T07:13:18;100704.41;;;5.65;100.00
73952;BME280;62304;47.662;18.324;2024-03-08T07:16:20;100702.16;;;5.59;100.00
73952;BME280;62304;47.662;18.324;2024-03-08T07:19:24;100696.59;;;5.67;100.00
73952;BME280;62304;47.662;18.324;2024-03-08T07:22:27;100696.44;;;5.72;100.00
73952;BME280;62304;47.662;18.324;2024-03-08T07:25:30;100703.38;;;5.78;100.00
73952;BME280;62304;47.662;18.324;2024-03-08T07:28:33;100693.97;;;5.79;100.00
73952;BME280;62304;47.662;18.324;2024-03-08T07:31:36;100687.31;;;5.89;100.00
73952;BME280;62304;47.662;18.324;2024-03-08T07:34:58;100698.97;;;5.94;100.00
73952;BME280;62304;47.662;18.324;2024-03-08T07:38:01;100694.47;;;5.90;100.00
73952;BME280;62304;47.662;18.324;2024-03-08T07:41:05;100694.28;;;5.95;100.00
73952;BME280;62304;47.662;18.324;2024-03-08T07:44:09;100701.41;;;5.96;100.00
73952;BME280;62304;47.662;18.324;2024-03-08T07:47:12;100695.03;;;6.04;100.00
73952;BME280;62304;47.662;18.324;2024-03-08T07:50:15;100694.19;;;6.12;100.00
73952;BME280;62304;47.662;18.324;2024-03-08T07:53:19;100704.66;;;6.18;100.00
73952;BME280;62304;47.662;18.324;2024-03-08T07:56:22;100705.53;;;6.10;100.00
73952;BME280;62304;47.662;18.324;2024-03-08T07:59:25;100703.91;;;6.09;100.00
73952;BME280;62304;47.662;18.324;2024-03-08T08:02:28;100697.22;;;6.19;100.00
73952;BME280;62304;47.662;18.324;2024-03-08T08:05:32;100698.03;;;6.19;100.00
73952;BME280;62304;47.662;18.324;2024-03-08T08:08:38;100702.22;;;6.25;100.00
73952;BME280;62304;47.662;18.324;2024-03-08T08:11:41;100700.75;;;6.28;100.00
73952;BME280;62304;47.662;18.324;2024-03-08T08:14:48;100698.66;;;6.45;100.00
73952;BME280;62304;47.662;18.324;2024-03-08T08:17:52;100700.84;;;6.60;100.00
73952;BME280;62304;47.662;18.324;2024-03-08T08:20:57;100700.84;;;6.60;100.00
73952;BME280;62304;47.662;18.324;2024-03-08T08:24:01;100697.06;;;6.44;100.00
73952;BME280;62304;47.662;18.324;2024-03-08T08:27:05;100703.97;;;6.30;100.00
73952;BME280;62304;47.662;18.324;2024-03-08T08:30:10;100704.56;;;6.35;100.00
73952;BME280;62304;47.662;18.324;2024-03-08T08:33:14;100705.25;;;6.32;100.00
73952;BME280;62304;47.662;18.324;2024-03-08T08:36:18;100705.25;;;6.32;100.00
73952;BME280;62304;47.662;18.324;2024-03-08T08:39:21;100709.62;;;6.54;100.00
73952;BME280;62304;47.662;18.324;2024-03-08T08:42:25;100710.53;;;6.66;100.00
73952;BME280;62304;47.662;18.324;2024-03-08T08:45:35;100708.91;;;6.65;100.00
73952;BME280;62304;47.662;18.324;2024-03-08T08:48:39;100706.16;;;6.65;100.00
73952;BME280;62304;47.662;18.324;2024-03-08T08:51:51;100710.44;;;6.54;99.50
73952;BME280;62304;47.662;18.324;2024-03-08T08:54:56;100707.69;;;6.54;100.00
73952;BME280;62304;47.662;18.324;2024-03-08T08:57:59;100709.59;;;6.33;100.00
73952;BME280;62304;47.662;18.324;2024-03-08T09:01:03;100703.34;;;6.24;100.00
73952;BME280;62304;47.662;18.324;2024-03-08T09:04:12;100716.25;;;6.32;100.00
73952;BME280;62304;47.662;18.324;2024-03-08T09:07:17;100698.19;;;6.23;100.00
73952;BME280;62304;47.662;18.324;2024-03-08T09:10:22;100703.34;;;6.24;100.00
73952;BME280;62304;47.662;18.324;2024-03-08T09:13:33;100705.06;;;6.37;99.93
73952;BME280;62304;47.662;18.324;2024-03-08T09:16:37;100696.09;;;6.40;98.88
73952;BME280;62304;47.662;18.324;2024-03-08T09:19:40;100699.25;;;6.59;98.64
73952;BME280;62304;47.662;18.324;2024-03-08T09:22:45;100703.12;;;6.58;99.12
73952;BME280;62304;47.662;18.324;2024-03-08T09:25:49;100694.53;;;6.80;98.71
73952;BME280;62304;47.662;18.324;2024-03-08T09:28:52;100697.50;;;6.75;97.91
73952;BME280;62304;47.662;18.324;2024-03-08T09:31:57;100701.72;;;6.93;97.32
73952;BME280;62304;47.662;18.324;2024-03-08T09:35:01;100698.31;;;6.96;95.92
73952;BME280;62304;47.662;18.324;2024-03-08T09:38:05;100702.63;;;6.85;94.34
73952;BME280;62304;47.662;18.324;2024-03-08T09:41:13;100704.06;;;6.62;95.86
73952;BME280;62304;47.662;18.324;2024-03-08T09:44:16;100703.28;;;6.82;96.67
73952;BME280;62304;47.662;18.324;2024-03-08T09:47:22;100700.72;;;6.77;97.08
73952;BME280;62304;47.662;18.324;2024-03-08T09:50:28;100706.41;;;6.72;97.09
73952;BME280;62304;47.662;18.324;2024-03-08T09:53:32;100695.25;;;6.69;96.48
73952;BME280;62304;47.662;18.324;2024-03-08T09:56:36;100698.28;;;6.76;97.72
73952;BME280;62304;47.662;18.324;2024-03-08T09:59:39;100700.63;;;6.86;97.98
73952;BME280;62304;47.662;18.324;2024-03-08T10:02:42;100708.37;;;6.92;96.86
73952;BME280;62304;47.662;18.324;2024-03-08T10:05:48;100709.13;;;6.81;96.49
73952;BME280;62304;47.662;18.324;2024-03-08T10:08:51;100709.13;;;6.81;97.14
73952;BME280;62304;47.662;18.324;2024-03-08T10:11:58;100708.31;;;6.80;97.26
73952;BME280;62304;47.662;18.324;2024-03-08T10:15:01;100711.72;;;6.98;96.98
73952;BME280;62304;47.662;18.324;2024-03-08T10:18:06;100707.44;;;6.88;97.22
73952;BME280;62304;47.662;18.324;2024-03-08T10:21:11;100709.13;;;6.81;96.96
73952;BME280;62304;47.662;18.324;2024-03-08T10:24:14;100714.34;;;6.94;96.61
73952;BME280;62304;47.662;18.324;2024-03-08T10:27:18;100708.44;;;7.04;96.15
73952;BME280;62304;47.662;18.324;2024-03-08T10:30:21;100707.34;;;7.17;96.09
73952;BME280;62304;47.662;18.324;2024-03-08T10:33:24;100709.91;;;7.34;95.90
73952;BME280;62304;47.662;18.324;2024-03-08T10:36:28;100704.09;;;7.48;95.06
73952;BME280;62304;47.662;18.324;2024-03-08T10:39:35;100704.91;;;7.48;94.93
73952;BME280;62304;47.662;18.324;2024-03-08T10:42:41;100704.72;;;7.53;95.09
73952;BME280;62304;47.662;18.324;2024-03-08T10:46:06;100703.78;;;7.49;95.23
73952;BME280;62304;47.662;18.324;2024-03-08T10:49:16;100707.47;;;7.53;94.64
73952;BME280;62304;47.662;18.324;2024-03-08T10:52:20;100700.34;;;7.52;94.24
73952;BME280;62304;47.662;18.324;2024-03-08T10:55:25;100702.41;;;7.67;94.32
73952;BME280;62304;47.662;18.324;2024-03-08T10:58:30;100701.50;;;7.51;94.18
73952;BME280;62304;47.662;18.324;2024-03-08T11:01:35;100700.78;;;7.54;93.71
73952;BME280;62304;47.662;18.324;2024-03-08T11:04:46;100706.16;;;7.39;94.32
73952;BME280;62304;47.662;18.324;2024-03-08T11:07:50;100699.28;;;7.45;93.65
73952;BME280;62304;47.662;18.324;2024-03-08T11:10:54;100687.84;;;7.34;93.61
73952;BME280;62304;47.662;18.324;2024-03-08T11:14:02;100691.22;;;7.40;95.45
73952;BME280;62304;47.662;18.324;2024-03-08T11:17:06;100693.38;;;7.34;94.81
73952;BME280;62304;47.662;18.324;2024-03-08T11:23:22;100682.34;;;7.34;95.30
73952;BME280;62304;47.662;18.324;2024-03-08T11:26:27;100679.34;;;7.39;94.67
73952;BME280;62304;47.662;18.324;2024-03-08T11:32:44;100683.41;;;7.54;95.22
73952;BME280;62304;47.662;18.324;2024-03-08T11:35:50;100679.88;;;7.53;95.37
73952;BME280;62304;47.662;18.324;2024-03-08T11:38:53;100678.25;;;7.52;95.13
73952;BME280;62304;47.662;18.324;2024-03-08T11:41:58;100682.38;;;7.46;94.73
73952;BME280;62304;47.662;18.324;2024-03-08T11:45:08;100670.41;;;7.42;94.86
73952;BME280;62304;47.662;18.324;2024-03-08T11:48:11;100670.19;;;7.47;94.85
73952;BME280;62304;47.662;18.324;2024-03-08T11:51:16;100670.13;;;7.68;94.34
73952;BME280;62304;47.662;18.324;2024-03-08T11:54:21;100671.50;;;7.74;93.88
73952;BME280;62304;47.662;18.324;2024-03-08T11:57:25;100664.16;;;7.78;93.71
73952;BME280;62304;47.662;18.324;2024-03-08T12:00:29;100658.13;;;7.64;94.44
73952;BME280;62304;47.662;18.324;2024-03-08T12:03:41;100647.31;;;7.59;95.13
73952;BME280;62304;47.662;18.324;2024-03-08T12:06:48;100662.78;;;7.72;95.08
73952;BME280;62304;47.662;18.324;2024-03-08T12:10:17;100655.97;;;7.69;95.80
73952;BME280;62304;47.662;18.324;2024-03-08T12:13:21;100658.50;;;7.74;95.57
73952;BME280;62304;47.662;18.324;2024-03-08T12:16:24;100656.84;;;7.37;96.75
73952;BME280;62304;47.662;18.324;2024-03-08T12:19:28;100651.84;;;7.63;95.87
73952;BME280;62304;47.662;18.324;2024-03-08T12:22:32;100656.41;;;7.47;96.87
73952;BME280;62304;47.662;18.324;2024-03-08T12:25:35;100652.72;;;7.55;96.22
73952;BME280;62304;47.662;18.324;2024-03-08T12:28:40;100654.09;;;7.61;95.42
73952;BME280;62304;47.662;18.324;2024-03-08T12:31:51;100652.59;;;7.52;96.61
73952;BME280;62304;47.662;18.324;2024-03-08T12:34:56;100648.84;;;7.80;95.94
73952;BME280;62304;47.662;18.324;2024-03-08T12:37:59;100655.66;;;7.95;94.37
73952;BME280;62304;47.662;18.324;2024-03-08T12:41:04;100641.50;;;8.08;94.50
73952;BME280;62304;47.662;18.324;2024-03-08T12:44:07;100649.53;;;8.13;93.76
73952;BME280;62304;47.662;18.324;2024-03-08T12:47:14;100648.03;;;7.92;93.33
73952;BME280;62304;47.662;18.324;2024-03-08T12:50:18;100641.00;;;7.58;93.13
73952;BME280;62304;47.662;18.324;2024-03-08T12:53:21;100645.25;;;7.56;93.84
73952;BME280;62304;47.662;18.324;2024-03-08T12:56:31;100640.06;;;7.54;94.83
73952;BME280;62304;47.662;18.324;2024-03-08T12:59:35;100638.47;;;7.53;94.93
73952;BME280;62304;47.662;18.324;2024-03-08T13:02:39;100643.25;;;7.32;95.19
73952;BME280;62304;47.662;18.324;2024-03-08T13:05:44;100637.75;;;7.44;94.72
73952;BME280;62304;47.662;18.324;2024-03-08T13:08:47;100639.50;;;7.49;96.12
73952;BME280;62304;47.662;18.324;2024-03-08T13:11:51;100627.44;;;7.53;96.13
73952;BME280;62304;47.662;18.324;2024-03-08T13:14:56;100632.34;;;7.48;95.53
73952;BME280;62304;47.662;18.324;2024-03-08T13:18:00;100619.59;;;7.67;95.62
73952;BME280;62304;47.662;18.324;2024-03-08T13:21:03;100614.91;;;7.80;93.96
73952;BME280;62304;47.662;18.324;2024-03-08T13:24:11;100622.12;;;7.84;93.25
73952;BME280;62304;47.662;18.324;2024-03-08T13:27:14;100619.03;;;7.86;94.19
73952;BME280;62304;47.662;18.324;2024-03-08T13:30:25;100619.38;;;7.84;92.79
73952;BME280;62304;47.662;18.324;2024-03-08T13:33:29;100612.59;;;7.70;93.52
73952;BME280;62304;47.662;18.324;2024-03-08T13:36:33;100608.81;;;7.74;94.07
73952;BME280;62304;47.662;18.324;2024-03-08T13:39:42;100609.16;;;7.73;93.27
73952;BME280;62304;47.662;18.324;2024-03-08T13:42:49;100607.41;;;7.56;93.23
73952;BME280;62304;47.662;18.324;2024-03-08T13:45:52;100604.53;;;7.65;93.46
73952;BME280;62304;47.662;18.324;2024-03-08T13:49:04;100608.12;;;7.65;93.93
73952;BME280;62304;47.662;18.324;2024-03-08T13:52:11;100611.19;;;7.28;92.86
73952;BME280;62304;47.662;18.324;2024-03-08T13:55:18;100607.66;;;7.51;93.36
73952;BME280;62304;47.662;18.324;2024-03-08T13:58:21;100600.06;;;7.48;93.72
73952;BME280;62304;47.662;18.324;2024-03-08T14:01:25;100601.09;;;7.56;93.99
73952;BME280;62304;47.662;18.324;2024-03-08T14:04:31;100598.22;;;7.52;93.56
73952;BME280;62304;47.662;18.324;2024-03-08T14:07:35;100597.63;;;7.47;93.83
73952;BME280;62304;47.662;18.324;2024-03-08T14:10:39;100602.09;;;7.39;94.15
73952;BME280;62304;47.662;18.324;2024-03-08T14:13:45;100596.34;;;7.32;94.06
73952;BME280;62304;47.662;18.324;2024-03-08T14:16:49;100596.13;;;7.37;93.98
73952;BME280;62304;47.662;18.324;2024-03-08T14:19:55;100594.53;;;7.36;93.83
73952;BME280;62304;47.662;18.324;2024-03-08T14:22:59;100591.97;;;7.31;94.18
73952;BME280;62304;47.662;18.324;2024-03-08T14:26:05;100589.00;;;7.24;94.31
73952;BME280;62304;47.662;18.324;2024-03-08T14:29:11;100587.34;;;7.23;94.31
73952;BME280;62304;47.662;18.324;2024-03-08T14:32:16;100593.34;;;7.25;94.57
73952;BME280;62304;47.662;18.324;2024-03-08T14:35:23;100586.59;;;7.35;94.87
73952;BME280;62304;47.662;18.324;2024-03-08T14:38:28;100587.84;;;7.37;94.26
73952;BME280;62304;47.662;18.324;2024-03-08T14:41:32;100585.53;;;7.39;95.21
73952;BME280;62304;47.662;18.324;2024-03-08T14:44:38;100582.78;;;7.39;94.89
73952;BME280;62304;47.662;18.324;2024-03-08T14:47:41;100578.66;;;7.45;95.31
73952;BME280;62304;47.662;18.324;2024-03-08T14:50:45;100563.94;;;7.53;94.81
73952;BME280;62304;47.662;18.324;2024-03-08T14:53:50;100585.09;;;7.61;94.00
73952;BME280;62304;47.662;18.324;2024-03-08T14:56:53;100579.94;;;7.60;93.66
73952;BME280;62304;47.662;18.324;2024-03-08T14:59:58;100584.19;;;7.57;93.45
73952;BME280;62304;47.662;18.324;2024-03-08T15:03:09;100577.53;;;7.58;94.07
73952;BME280;62304;47.662;18.324;2024-03-08T15:06:16;100568.09;;;7.59;94.42
73952;BME280;62304;47.662;18.324;2024-03-08T15:09:23;100570.84;;;7.59;94.65
73952;BME280;62304;47.662;18.324;2024-03-08T15:12:27;100568.91;;;7.60;95.13
73952;BME280;62304;47.662;18.324;2024-03-08T15:15:32;100572.00;;;7.58;94.11
73952;BME280;62304;47.662;18.324;2024-03-08T15:18:39;100569.47;;;7.53;94.01
73952;BME280;62304;47.662;18.324;2024-03-08T15:21:42;100564.41;;;7.55;93.75
73952;BME280;62304;47.662;18.324;2024-03-08T15:24:49;100563.94;;;7.53;94.24
73952;BME280;62304;47.662;18.324;2024-03-08T15:27:52;100557.50;;;7.61;95.11
73952;BME280;62304;47.662;18.324;2024-03-08T15:30:56;100572.44;;;7.60;95.55
73952;BME280;62304;47.662;18.324;2024-03-08T15:34:07;100561.31;;;7.57;96.85
73952;BME280;62304;47.662;18.324;2024-03-08T15:37:12;100570.41;;;7.57;95.22
73952;BME280;62304;47.662;18.324;2024-03-08T15:40:19;100564.50;;;7.59;95.14
73952;BME280;62304;47.662;18.324;2024-03-08T15:43:26;100563.94;;;7.41;95.00
73952;BME280;62304;47.662;18.324;2024-03-08T15:46:30;100562.44;;;7.32;94.79
73952;BME280;62304;47.662;18.324;2024-03-08T15:49:33;100564.06;;;7.33;94.89
73952;BME280;62304;47.662;18.324;2024-03-08T15:52:36;100560.69;;;7.27;94.16
73952;BME280;62304;47.662;18.324;2024-03-08T15:55:43;100554.72;;;7.25;94.79
73952;BME280;62304;47.662;18.324;2024-03-08T15:58:50;100557.94;;;7.27;94.39
73952;BME280;62304;47.662;18.324;2024-03-08T16:01:56;100551.28;;;7.28;94.64
73952;BME280;62304;47.662;18.324;2024-03-08T16:05:01;100559.66;;;7.32;94.48